createdAt,value
2023-03-03T00:01:53.792Z,19.60
2023-03-03T00:04:22.789Z,18.97
2023-03-03T00:06:53.002Z,18.33
2023-03-03T00:09:25.192Z,17.10
2023-03-03T00:12:00.435Z,18.37
2023-03-03T00:14:33.500Z,19.73
2023-03-03T00:17:08.472Z,18.03
2023-03-03T00:19:44.961Z,20.10
2023-03-03T00:22:23.499Z,18.73
2023-03-03T00:24:56.763Z,19.67
2023-03-03T00:27:29.886Z,17.37
2023-03-03T00:30:04.270Z,18.47
2023-03-03T00:32:39.677Z,18.60
2023-03-03T00:35:26.994Z,19.17
2023-03-03T00:38:00.136Z,16.93
2023-03-03T00:40:34.205Z,16.50
2023-03-03T00:43:16.919Z,19.30
2023-03-03T00:45:45.988Z,16.67
2023-03-03T00:48:25.199Z,17.50
2023-03-03T00:50:54.217Z,17.60
2023-03-03T00:53:27.094Z,17.57
2023-03-03T00:55:55.065Z,19.80
2023-03-03T00:58:26.254Z,15.90
2023-03-03T01:00:56.557Z,19.97
2023-03-03T01:03:27.287Z,17.37
2023-03-03T01:06:02.324Z,17.60
2023-03-03T01:08:39.030Z,19.80
2023-03-03T01:11:15.236Z,16.40
2023-03-03T01:13:49.664Z,18.93
2023-03-03T01:16:17.713Z,16.87
2023-03-03T01:18:50.929Z,18.23
2023-03-03T01:21:24.012Z,19.43
2023-03-03T01:26:35.032Z,20.97
2023-03-03T01:29:07.247Z,19.20
2023-03-03T01:31:41.093Z,19.27
2023-03-03T01:34:09.674Z,17.53
2023-03-03T01:36:38.005Z,16.40
2023-03-03T01:39:07.252Z,20.50
2023-03-03T01:41:37.482Z,19.13
2023-03-03T01:44:09.738Z,17.00
2023-03-03T01:46:47.841Z,18.23
2023-03-03T01:49:17.346Z,18.77
2023-03-03T01:51:49.438Z,16.97
2023-03-03T01:54:20.549Z,17.80
2023-03-03T01:56:52.834Z,17.47
2023-03-03T01:59:26.994Z,17.57
2023-03-03T02:01:57.950Z,18.13
2023-03-03T02:04:28.558Z,19.03
2023-03-03T02:07:07.113Z,17.80
2023-03-03T02:09:41.775Z,17.77
2023-03-03T02:12:13.249Z,16.40
2023-03-03T02:14:42.431Z,18.60
2023-03-03T02:17:10.399Z,17.20
2023-03-03T02:19:48.989Z,17.37
2023-03-03T02:22:19.007Z,19.43
2023-03-03T02:24:50.317Z,18.80
2023-03-03T02:27:21.163Z,18.50
2023-03-03T02:29:49.295Z,18.27
2023-03-03T02:32:19.989Z,20.33
2023-03-03T02:34:49.457Z,17.80
2023-03-03T02:37:18.224Z,17.23
2023-03-03T02:39:46.659Z,18.73
2023-03-03T02:42:18.531Z,17.97
2023-03-03T02:44:47.755Z,17.33
2023-03-03T02:47:15.624Z,19.77
2023-03-03T02:49:43.788Z,17.87
2023-03-03T02:52:18.126Z,17.57
2023-03-03T02:54:45.979Z,19.57
2023-03-03T02:57:16.180Z,20.47
2023-03-03T02:59:44.050Z,20.00
2023-03-03T03:02:13.527Z,21.27
2023-03-03T03:04:43.539Z,17.37
2023-03-03T03:07:18.656Z,17.13
2023-03-03T03:09:47.941Z,18.87
2023-03-03T03:12:16.091Z,16.87
2023-03-03T03:14:46.855Z,19.57
2023-03-03T03:17:16.184Z,17.23
2023-03-03T03:19:44.035Z,16.80
2023-03-03T03:22:11.921Z,18.87
2023-03-03T03:24:41.952Z,16.93
2023-03-03T03:27:11.593Z,16.80
2023-03-03T03:29:42.026Z,16.10
2023-03-03T03:32:12.991Z,17.90
2023-03-03T03:34:43.442Z,17.20
2023-03-03T03:37:11.301Z,18.73
2023-03-03T03:39:42.132Z,16.83
2023-03-03T03:42:12.769Z,18.53
2023-03-03T03:44:43.359Z,19.83
2023-03-03T03:47:18.344Z,19.00
2023-03-03T03:49:47.984Z,18.10
2023-03-03T03:52:16.839Z,17.83
2023-03-03T03:54:45.129Z,19.47
2023-03-03T03:57:17.376Z,19.33
2023-03-03T03:59:47.332Z,17.33
2023-03-03T04:02:16.470Z,18.67
2023-03-03T04:04:46.561Z,18.10
2023-03-03T04:07:17.037Z,16.93
2023-03-03T04:09:44.907Z,17.37
2023-03-03T04:12:16.579Z,19.77
2023-03-03T04:14:46.181Z,18.70
2023-03-03T04:17:18.188Z,20.30
2023-03-03T04:19:56.366Z,19.07
2023-03-03T04:22:26.881Z,17.97
2023-03-03T04:24:57.483Z,19.33
2023-03-03T04:27:28.230Z,18.30
2023-03-03T04:30:03.474Z,19.70
2023-03-03T04:32:33.996Z,20.40
2023-03-03T04:35:08.391Z,19.17
2023-03-03T04:37:39.942Z,17.73
2023-03-03T04:40:12.633Z,17.60
2023-03-03T04:42:40.446Z,19.83
2023-03-03T04:45:24.672Z,19.20
2023-03-03T04:47:57.972Z,19.00
2023-03-03T04:50:25.941Z,18.10
2023-03-03T04:52:56.367Z,18.37
2023-03-03T04:55:26.861Z,19.50
2023-03-03T04:57:54.681Z,19.60
2023-03-03T05:00:22.777Z,20.10
2023-03-03T05:02:50.723Z,18.70
2023-03-03T05:05:21.771Z,16.63
2023-03-03T05:07:51.968Z,18.33
2023-03-03T05:10:21.971Z,16.77
2023-03-03T05:12:49.844Z,20.03
2023-03-03T05:15:17.811Z,18.20
2023-03-03T05:17:45.950Z,18.63
2023-03-03T05:20:16.127Z,16.30
2023-03-03T05:22:44.679Z,18.37
2023-03-03T05:25:17.370Z,17.80
2023-03-03T05:27:46.582Z,16.80
2023-03-03T05:30:18.612Z,15.40
2023-03-03T05:32:48.923Z,16.00
2023-03-03T05:35:17.942Z,17.40
2023-03-03T05:37:51.635Z,17.30
2023-03-03T05:40:20.510Z,19.00
2023-03-03T05:42:54.772Z,17.67
2023-03-03T05:45:25.502Z,18.43
2023-03-03T05:47:55.402Z,16.27
2023-03-03T05:50:28.678Z,19.03
2023-03-03T05:52:56.488Z,17.80
2023-03-03T05:55:47.669Z,15.90
2023-03-03T05:58:26.547Z,16.80
2023-03-03T06:00:57.376Z,17.30
2023-03-03T06:03:25.406Z,20.50
2023-03-03T06:05:56.345Z,18.43
2023-03-03T06:08:24.505Z,19.60
2023-03-03T06:10:54.671Z,18.93
2023-03-03T06:13:23.987Z,20.00
2023-03-03T06:15:54.937Z,19.97
2023-03-03T06:18:22.881Z,19.13
2023-03-03T06:20:57.132Z,16.77
2023-03-03T06:23:28.497Z,19.70
2023-03-03T06:25:59.042Z,17.50
2023-03-03T06:28:30.204Z,18.90
2023-03-03T06:31:01.300Z,19.03
2023-03-03T06:33:29.241Z,19.27
2023-03-03T06:35:57.565Z,19.87
2023-03-03T06:38:28.408Z,19.50
2023-03-03T06:40:56.734Z,20.60
2023-03-03T06:43:24.523Z,19.07
2023-03-03T06:45:53.933Z,17.90
2023-03-03T06:48:22.166Z,19.20
2023-03-03T06:50:55.079Z,18.70
2023-03-03T06:53:24.227Z,20.10
2023-03-03T06:55:52.511Z,19.00
2023-03-03T06:58:21.895Z,18.33
2023-03-03T07:00:56.759Z,19.27
2023-03-03T07:03:29.762Z,19.30
2023-03-03T07:05:57.655Z,19.57
2023-03-03T07:08:32.565Z,19.07
2023-03-03T07:11:08.866Z,19.63
2023-03-03T07:13:49.294Z,20.03
2023-03-03T07:16:20.015Z,21.90
2023-03-03T07:18:51.578Z,16.97
2023-03-03T07:21:30.499Z,17.50
2023-03-03T07:24:02.240Z,18.97
2023-03-03T07:26:33.149Z,16.60
2023-03-03T07:29:18.258Z,19.40
2023-03-03T07:31:52.702Z,17.53
2023-03-03T07:34:31.489Z,18.90
2023-03-03T07:37:07.182Z,16.73
2023-03-03T07:39:40.282Z,17.20
2023-03-03T07:42:22.623Z,18.50
2023-03-03T07:44:56.252Z,15.77
2023-03-03T07:47:28.443Z,15.60
2023-03-03T07:50:00.845Z,17.00
2023-03-03T07:52:32.596Z,17.40
2023-03-03T07:55:03.708Z,16.83
2023-03-03T07:57:40.028Z,17.20
2023-03-03T08:01:02.761Z,18.20
2023-03-03T08:03:33.034Z,17.03
2023-03-03T08:06:03.305Z,15.67
2023-03-03T08:08:32.509Z,15.17
2023-03-03T08:11:01.395Z,16.37
2023-03-03T08:13:41.314Z,16.23
2023-03-03T08:16:26.915Z,17.00
2023-03-03T08:18:57.745Z,17.33
2023-03-03T08:21:28.521Z,14.33
2023-03-03T08:23:56.993Z,14.43
2023-03-03T08:26:25.807Z,14.00
2023-03-03T08:28:58.419Z,14.53
2023-03-03T08:31:40.303Z,15.00
2023-03-03T08:34:10.185Z,17.67
2023-03-03T08:36:38.224Z,15.80
2023-03-03T08:39:09.414Z,16.77
2023-03-03T08:41:37.582Z,16.90
2023-03-03T08:44:06.316Z,15.47
2023-03-03T08:46:34.272Z,16.50
2023-03-03T08:49:02.396Z,16.40
2023-03-03T08:51:34.257Z,14.70
2023-03-03T08:54:02.714Z,13.93
2023-03-03T08:56:30.734Z,15.53
2023-03-03T08:59:02.498Z,15.30
2023-03-03T09:01:31.010Z,14.70
2023-03-03T09:03:59.119Z,16.10
2023-03-03T09:06:29.981Z,14.17
2023-03-03T09:09:00.441Z,17.30
2023-03-03T09:11:29.642Z,15.63
2023-03-03T09:14:05.996Z,14.87
2023-03-03T09:16:38.744Z,15.00
2023-03-03T09:19:23.485Z,16.03
2023-03-03T09:21:52.720Z,18.10
2023-03-03T09:24:28.018Z,17.80
2023-03-03T09:26:59.646Z,16.67
2023-03-03T09:29:29.254Z,16.37
2023-03-03T09:32:00.003Z,18.30
2023-03-03T09:34:42.613Z,16.70
2023-03-03T09:37:23.617Z,17.20
2023-03-03T09:39:54.513Z,17.83
2023-03-03T09:42:43.261Z,17.20
2023-03-03T09:45:41.489Z,17.13
2023-03-03T09:48:25.041Z,15.50
2023-03-03T09:51:17.538Z,16.00
2023-03-03T09:54:01.677Z,16.80
2023-03-03T09:56:42.762Z,16.60
2023-03-03T09:59:27.803Z,18.63
2023-03-03T10:02:21.619Z,18.17
2023-03-03T10:05:17.258Z,18.83
2023-03-03T10:07:55.150Z,18.13
2023-03-03T10:10:36.891Z,18.23
2023-03-03T10:13:19.613Z,18.03
2023-03-03T10:15:58.042Z,18.30
2023-03-03T10:18:33.611Z,17.83
2023-03-03T10:21:09.775Z,17.03
2023-03-03T10:24:01.367Z,17.37
2023-03-03T10:26:45.744Z,17.30
2023-03-03T10:29:34.249Z,17.53
2023-03-03T10:32:23.050Z,19.10
2023-03-03T10:35:18.521Z,18.60
2023-03-03T10:37:57.933Z,17.40
2023-03-03T10:40:33.360Z,15.87
2023-03-03T10:43:31.243Z,16.00
2023-03-03T10:46:17.776Z,16.33
2023-03-03T10:49:11.786Z,17.77
2023-03-03T10:51:49.459Z,17.47
2023-03-03T10:54:32.254Z,18.27
2023-03-03T10:57:08.787Z,17.53
2023-03-03T10:59:58.714Z,19.50
2023-03-03T11:02:37.362Z,17.13
2023-03-03T11:05:20.847Z,17.03
2023-03-03T11:07:50.926Z,16.97
2023-03-03T11:10:45.770Z,17.17
2023-03-03T11:13:20.565Z,17.90
2023-03-03T11:16:29.672Z,18.43
2023-03-03T11:19:12.476Z,17.43
2023-03-03T11:21:43.577Z,16.20
2023-03-03T11:24:28.198Z,17.50
2023-03-03T11:27:14.070Z,16.10
2023-03-03T11:29:51.801Z,17.97
2023-03-03T11:32:27.332Z,16.70
2023-03-03T11:35:05.226Z,15.83
2023-03-03T11:37:41.232Z,19.03
2023-03-03T11:40:18.043Z,16.50
2023-03-03T11:42:57.290Z,15.50
2023-03-03T11:45:31.572Z,14.80
2023-03-03T11:48:03.792Z,16.80
2023-03-03T11:50:42.400Z,17.43
2023-03-03T11:53:27.378Z,17.40
2023-03-03T11:55:59.776Z,14.87
2023-03-03T11:58:34.760Z,15.50
2023-03-03T12:01:11.669Z,14.10
2023-03-03T12:03:42.068Z,14.83
2023-03-03T12:06:21.717Z,16.90
2023-03-03T12:09:03.834Z,15.40
2023-03-03T12:11:39.356Z,15.13
2023-03-03T12:14:14.794Z,16.30
2023-03-03T12:16:51.761Z,15.87
2023-03-03T12:19:27.216Z,15.67
2023-03-03T12:25:19.069Z,16.80
2023-03-03T12:27:53.388Z,17.30
2023-03-03T12:30:36.634Z,16.00
2023-03-03T12:33:15.134Z,18.00
2023-03-03T12:35:54.527Z,16.93
2023-03-03T12:38:35.271Z,16.27
2023-03-03T12:41:09.511Z,16.03
2023-03-03T12:44:01.885Z,15.90
2023-03-03T12:46:40.159Z,16.30
2023-03-03T12:49:08.582Z,18.03
2023-03-03T12:51:49.867Z,16.30
2023-03-03T12:54:37.352Z,16.77
2023-03-03T12:57:15.823Z,15.23
2023-03-03T12:59:52.309Z,15.53
2023-03-03T13:02:40.286Z,16.20
2023-03-03T13:05:19.768Z,16.93
2023-03-03T13:07:57.291Z,15.37
2023-03-03T13:10:33.071Z,16.00
2023-03-03T13:13:05.277Z,17.80
2023-03-03T13:15:46.311Z,15.40
2023-03-03T13:18:41.301Z,16.30
2023-03-03T13:21:12.551Z,15.33
2023-03-03T13:23:48.103Z,16.13
2023-03-03T13:26:21.849Z,17.43
2023-03-03T13:29:01.884Z,16.00
2023-03-03T13:31:35.050Z,15.47
2023-03-03T13:34:03.932Z,16.80
2023-03-03T13:36:46.144Z,16.20
2023-03-03T13:39:25.316Z,17.47
2023-03-03T13:41:58.101Z,18.47
2023-03-03T13:44:31.332Z,16.57
2023-03-03T13:47:13.109Z,16.90
2023-03-03T13:50:19.836Z,17.90
2023-03-03T13:52:59.409Z,16.70
2023-03-03T13:55:33.099Z,17.13
2023-03-03T13:58:10.421Z,14.60
2023-03-03T14:00:47.569Z,17.40
2023-03-03T14:03:41.636Z,17.30
2023-03-03T14:06:16.378Z,17.57
2023-03-03T14:09:02.916Z,17.60
2023-03-03T14:11:38.093Z,19.10
2023-03-03T14:14:25.403Z,17.83
2023-03-03T14:16:56.777Z,17.63
2023-03-03T14:19:30.195Z,18.17
2023-03-03T14:22:10.049Z,18.77
2023-03-03T14:25:06.276Z,18.40
2023-03-03T14:27:40.363Z,17.83
2023-03-03T14:30:28.167Z,16.10
2023-03-03T14:33:07.374Z,19.00
2023-03-03T14:35:39.082Z,18.57
2023-03-03T14:38:12.210Z,18.10
2023-03-03T14:40:42.947Z,17.73
2023-03-03T14:43:22.386Z,18.30
2023-03-03T14:45:51.967Z,18.83
2023-03-03T14:48:32.659Z,18.43
2023-03-03T14:51:04.785Z,17.73
2023-03-03T14:53:37.565Z,17.43
2023-03-03T14:56:22.504Z,17.00
2023-03-03T14:58:51.053Z,18.13
2023-03-03T15:01:37.176Z,15.83
2023-03-03T15:04:12.110Z,18.40
2023-03-03T15:06:46.176Z,17.80
2023-03-03T15:09:33.806Z,19.93
2023-03-03T15:12:08.196Z,18.17
2023-03-03T15:14:40.007Z,16.53
2023-03-03T15:17:31.083Z,17.77
2023-03-03T15:20:38.354Z,17.27
2023-03-03T15:23:45.323Z,18.07
2023-03-03T15:26:18.727Z,18.77
2023-03-03T15:28:55.642Z,16.07
2023-03-03T15:31:33.081Z,17.30
2023-03-03T15:34:16.962Z,18.00
2023-03-03T15:36:48.884Z,18.83
2023-03-03T15:39:26.111Z,17.87
2023-03-03T15:41:59.255Z,17.20
2023-03-03T15:44:36.797Z,18.30
2023-03-03T15:47:14.327Z,17.63
2023-03-03T15:49:57.921Z,16.83
2023-03-03T15:52:43.067Z,18.00
2023-03-03T15:55:24.827Z,15.43
2023-03-03T15:58:01.607Z,17.10
2023-03-03T16:01:10.649Z,17.80
2023-03-03T16:03:48.529Z,18.20
2023-03-03T16:06:20.610Z,17.70
2023-03-03T16:08:54.390Z,18.33
2023-03-03T16:11:27.901Z,18.13
2023-03-03T16:14:07.302Z,17.23
2023-03-03T16:16:48.317Z,16.77
2023-03-03T16:19:32.079Z,17.20
2023-03-03T16:22:15.821Z,18.30
2023-03-03T16:24:49.244Z,15.63
2023-03-03T16:27:23.095Z,17.07
2023-03-03T16:30:05.268Z,17.87
2023-03-03T16:32:37.465Z,16.07
2023-03-03T16:35:24.121Z,17.20
2023-03-03T16:38:02.993Z,16.83
2023-03-03T16:40:33.591Z,17.20
2023-03-03T16:43:16.528Z,16.03
2023-03-03T16:45:46.061Z,17.10
2023-03-03T16:48:26.885Z,16.90
2023-03-03T16:51:06.090Z,17.10
2023-03-03T16:53:47.765Z,17.17
2023-03-03T16:56:19.607Z,16.10
2023-03-03T16:58:55.964Z,16.73
2023-03-03T17:01:29.833Z,17.57
2023-03-03T17:04:03.958Z,17.33
2023-03-03T17:06:42.704Z,16.93
2023-03-03T17:09:39.557Z,18.10
2023-03-03T17:12:27.921Z,17.07
2023-03-03T17:15:13.351Z,17.43
2023-03-03T17:17:45.243Z,16.70
2023-03-03T17:20:22.958Z,18.27
2023-03-03T17:23:06.430Z,18.53
2023-03-03T17:25:40.208Z,18.93
2023-03-03T17:28:20.455Z,18.80
2023-03-03T17:30:54.494Z,20.00
2023-03-03T17:33:43.376Z,19.07
2023-03-03T17:36:21.525Z,21.20
2023-03-03T17:38:58.897Z,21.20
2023-03-03T17:41:37.984Z,19.80
2023-03-03T17:44:11.191Z,20.00
2023-03-03T17:46:47.389Z,19.13
2023-03-03T17:49:43.787Z,20.00
2023-03-03T17:52:33.527Z,20.50
2023-03-03T17:55:13.748Z,20.80
2023-03-03T17:57:54.860Z,18.57
2023-03-03T18:00:31.739Z,20.07
2023-03-03T18:03:18.161Z,20.10
2023-03-03T18:06:03.958Z,19.87
2023-03-03T18:09:14.202Z,18.93
2023-03-03T18:11:55.644Z,18.97
2023-03-03T18:14:35.289Z,21.33
2023-03-03T18:17:21.473Z,21.40
2023-03-03T18:20:06.441Z,18.77
2023-03-03T18:22:35.734Z,18.73
2023-03-03T18:25:07.512Z,19.73
2023-03-03T18:27:37.542Z,19.77
2023-03-03T18:30:26.765Z,18.37
2023-03-03T18:33:13.025Z,23.70
2023-03-03T18:35:43.906Z,20.53
2023-03-03T18:38:30.353Z,20.90
2023-03-03T18:41:00.127Z,19.03
2023-03-03T18:43:55.368Z,19.53
2023-03-03T18:46:54.249Z,21.67
2023-03-03T18:49:52.630Z,18.83
2023-03-03T18:52:27.609Z,17.90
2023-03-03T18:55:28.461Z,22.60
2023-03-03T18:58:34.695Z,18.27
2023-03-03T19:01:13.691Z,19.47
2023-03-03T19:07:16.126Z,21.67
2023-03-03T19:09:57.630Z,18.50
2023-03-03T19:12:51.777Z,18.20
2023-03-03T19:15:52.509Z,16.60
2023-03-03T19:18:23.758Z,18.10
2023-03-03T19:20:57.958Z,19.63
2023-03-03T19:23:49.768Z,21.50
2023-03-03T19:26:55.462Z,16.77
2023-03-03T19:29:41.592Z,19.27
2023-03-03T19:32:29.395Z,19.17
2023-03-03T19:35:11.121Z,18.40
2023-03-03T19:37:54.277Z,16.30
2023-03-03T19:40:28.750Z,16.97
2023-03-03T19:43:21.418Z,15.13
2023-03-03T19:46:00.652Z,20.40
2023-03-03T19:48:35.888Z,18.67
2023-03-03T19:51:14.039Z,16.80
2023-03-03T19:53:54.081Z,15.30
2023-03-03T19:56:29.412Z,15.60
2023-03-03T19:59:09.565Z,14.60
2023-03-03T20:01:48.163Z,14.13
2023-03-03T20:04:43.373Z,14.27
2023-03-03T20:07:18.941Z,15.53
2023-03-03T20:09:50.946Z,14.17
2023-03-03T20:12:27.355Z,14.80
2023-03-03T20:14:58.491Z,14.67
2023-03-03T20:17:41.321Z,17.70
2023-03-03T20:20:25.327Z,15.57
2023-03-03T20:22:59.045Z,17.20
2023-03-03T20:25:29.804Z,13.60
2023-03-03T20:28:07.090Z,12.33
2023-03-03T20:30:57.867Z,15.20
2023-03-03T20:33:53.198Z,14.00
2023-03-03T20:36:27.901Z,17.00
2023-03-03T20:39:06.564Z,15.80
2023-03-03T20:41:49.793Z,13.90
2023-03-03T20:44:26.030Z,14.23
2023-03-03T20:47:00.134Z,15.53
2023-03-03T20:50:05.173Z,14.87
2023-03-03T20:52:41.592Z,16.43
2023-03-03T20:55:19.040Z,16.23
2023-03-03T20:57:50.643Z,16.87
2023-03-03T21:00:25.132Z,18.40
2023-03-03T21:03:00.311Z,17.50
2023-03-03T21:05:31.209Z,18.50
2023-03-03T21:08:02.373Z,16.57
2023-03-03T21:10:33.955Z,15.97
2023-03-03T21:13:27.817Z,17.47
2023-03-03T21:15:57.668Z,19.93
2023-03-03T21:18:26.456Z,16.00
2023-03-03T21:20:54.710Z,15.80
2023-03-03T21:23:27.732Z,17.97
2023-03-03T21:25:56.111Z,16.10
2023-03-03T21:28:26.948Z,17.13
2023-03-03T21:31:06.244Z,19.37
2023-03-03T21:33:45.594Z,17.60
2023-03-03T21:36:16.022Z,16.47
2023-03-03T21:38:46.084Z,13.97
2023-03-03T21:41:18.204Z,20.20
2023-03-03T21:43:47.874Z,16.87
2023-03-03T21:46:21.587Z,15.90
2023-03-03T21:48:50.405Z,14.50
2023-03-03T21:51:20.418Z,15.13
2023-03-03T21:53:48.492Z,13.43
2023-03-03T21:56:23.225Z,15.77
2023-03-03T21:58:53.146Z,14.13
2023-03-03T22:01:24.971Z,14.77
2023-03-03T22:03:52.834Z,16.80
2023-03-03T22:06:23.749Z,15.10
2023-03-03T22:08:54.169Z,15.73
2023-03-03T22:11:23.043Z,14.37
2023-03-03T22:13:50.954Z,14.33
2023-03-03T22:16:18.927Z,14.07
2023-03-03T22:18:51.638Z,13.13
2023-03-03T22:21:19.658Z,16.13
2023-03-03T22:23:47.466Z,14.43
2023-03-03T22:26:15.352Z,13.00
2023-03-03T22:28:44.485Z,13.30
2023-03-03T22:31:14.528Z,14.50
2023-03-03T22:33:42.647Z,15.90
2023-03-03T22:36:13.719Z,12.27
2023-03-03T22:38:44.414Z,14.03
2023-03-03T22:41:17.309Z,14.47
2023-03-03T22:43:48.487Z,13.77
2023-03-03T22:46:19.389Z,13.87
2023-03-03T22:48:47.243Z,14.10
2023-03-03T22:51:21.073Z,14.40
2023-03-03T22:53:57.170Z,13.90
2023-03-03T22:56:27.759Z,14.30
2023-03-03T22:58:55.588Z,14.30
2023-03-03T23:01:25.190Z,14.93
2023-03-03T23:03:53.323Z,14.63
2023-03-03T23:06:26.468Z,16.40
2023-03-03T23:08:57.531Z,15.57
2023-03-03T23:11:34.786Z,16.60
2023-03-03T23:14:15.027Z,13.93
2023-03-03T23:16:43.058Z,15.53
2023-03-03T23:19:11.725Z,14.37
2023-03-03T23:21:42.593Z,13.20
2023-03-03T23:24:11.312Z,12.97
2023-03-03T23:26:40.316Z,14.93
2023-03-03T23:29:11.420Z,13.10
2023-03-03T23:31:39.473Z,14.80
2023-03-03T23:34:09.659Z,12.70
2023-03-03T23:36:38.664Z,12.80
2023-03-03T23:39:12.972Z,12.40
2023-03-03T23:41:45.058Z,13.47
2023-03-03T23:44:13.216Z,13.83
2023-03-03T23:46:52.258Z,12.63
2023-03-03T23:49:20.174Z,14.97
2023-03-03T23:51:51.047Z,12.33
2023-03-03T23:54:21.578Z,13.50
2023-03-03T23:56:53.065Z,13.60
2023-03-03T23:59:21.038Z,11.93
